Time,TemperatureF,DewpointF,PressureIn,WindDirection,WindDirectionDegrees,WindSpeedMPH,WindSpeedGustMPH,Humidity,HourlyPrecipIn,Conditions,Clouds,dailyrainin,SoftwareType,DateUTC
2017-06-28 00:04:00,50.2,48.5,30.06,West,270,0.0,-999.0,94,-99.99,,,0.00,,2017-06-28 04:04:00,
2017-06-28 00:09:00,50.2,48.8,30.06,West,270,0.0,-999.0,95,-99.99,,,0.00,,2017-06-28 04:09:00,
2017-06-28 00:14:00,50.0,48.9,30.06,WNW,292,0.0,-999.0,96,-99.99,,,0.00,,2017-06-28 04:14:00,
2017-06-28 00:20:00,50.0,48.9,30.06,WNW,292,0.0,-999.0,96,-99.99,,,0.00,,2017-06-28 04:20:00,
2017-06-28 00:25:00,49.8,48.7,30.06,West,270,0.0,-999.0,96,-99.99,,,0.00,,2017-06-28 04:25:00,
2017-06-28 00:31:00,49.6,48.5,30.06,NW,315,0.0,-999.0,96,-99.99,,,0.00,,2017-06-28 04:31:00,
2017-06-28 00:36:00,49.5,48.4,30.06,WSW,247,0.0,-999.0,96,-99.99,,,0.00,,2017-06-28 04:36:00,
2017-06-28 00:41:00,49.3,48.2,30.06,WNW,292,0.0,-999.0,96,-99.99,,,0.00,,2017-06-28 04:41:00,
2017-06-28 00:47:00,49.1,48.3,30.06,NW,315,0.0,-999.0,97,-99.99,,,0.00,,2017-06-28 04:47:00,
2017-06-28 00:52:00,48.9,48.1,30.06,WNW,292,0.0,-999.0,97,-99.99,,,0.00,,2017-06-28 04:52:00,
2017-06-28 00:57:00,48.7,47.9,30.06,West,270,0.0,-999.0,97,-99.99,,,0.00,,2017-06-28 04:57:00,
2017-06-28 01:02:00,48.6,47.8,30.06,WNW,292,0.0,-999.0,97,-99.99,,,0.00,,2017-06-28 05:02:00,
2017-06-28 01:08:00,48.4,47.6,30.06,West,270,0.0,-999.0,97,-99.99,,,0.00,,2017-06-28 05:08:00,
2017-06-28 01:13:00,48.4,47.9,30.06,WNW,292,0.0,-999.0,98,-99.99,,,0.00,,2017-06-28 05:13:00,
2017-06-28 01:18:00,48.2,47.7,30.06,West,270,0.0,-999.0,98,-99.99,,,0.00,,2017-06-28 05:18:00,
2017-06-28 01:23:00,48.2,47.7,30.06,West,270,0.0,-999.0,98,-99.99,,,0.00,,2017-06-28 05:23:00,
2017-06-28 01:29:00,48.2,47.9,30.06,West,270,0.0,-999.0,99,-99.99,,,0.00,,2017-06-28 05:29:00,
2017-06-28 01:34:00,48.0,47.7,30.06,West,270,0.0,-999.0,99,-99.99,,,0.00,,2017-06-28 05:34:00,
2017-06-28 01:39:00,47.8,47.5,30.06,West,270,0.0,-999.0,99,-99.99,,,0.00,,2017-06-28 05:39:00,
2017-06-28 01:45:00,47.7,47.4,30.06,West,270,0.0,-999.0,99,-99.99,,,0.00,,2017-06-28 05:45:00,
2017-06-28 01:50:00,47.5,47.2,30.06,WNW,292,0.0,-999.0,99,-99.99,,,0.00,,2017-06-28 05:50:00,
2017-06-28 01:55:00,47.5,47.2,30.06,WSW,247,0.0,-999.0,99,-99.99,,,0.00,,2017-06-28 05:55:00,
2017-06-28 02:00:00,47.3,47.0,30.06,West,270,0.0,-999.0,99,-99.99,,,0.00,,2017-06-28 06:00:00,
2017-06-28 02:06:00,47.3,47.0,30.07,WNW,292,0.0,-999.0,99,-99.99,,,0.00,,2017-06-28 06:06:00,
2017-06-28 02:11:00,47.1,46.8,30.07,West,270,0.0,-999.0,99,-99.99,,,0.00,,2017-06-28 06:11:00,
2017-06-28 02:16:00,47.1,46.8,30.07,WNW,292,0.0,-999.0,99,-99.99,,,0.00,,2017-06-28 06:16:00,
2017-06-28 02:21:00,46.9,46.6,30.07,WNW,292,0.0,-999.0,99,-99.99,,,0.00,,2017-06-28 06:21:00,
2017-06-28 02:26:00,46.8,46.5,30.06,West,270,0.0,-999.0,99,-99.99,,,0.00,,2017-06-28 06:26:00,
2017-06-28 02:31:00,46.8,46.5,30.06,West,270,0.0,-999.0,99,-99.99,,,0.00,,2017-06-28 06:31:00,
2017-06-28 02:37:00,46.8,46.5,30.06,West,270,0.0,-999.0,99,-99.99,,,0.00,,2017-06-28 06:37:00,
2017-06-28 02:42:00,46.8,46.5,30.07,WNW,292,0.0,-999.0,99,-99.99,,,0.00,,2017-06-28 06:42:00,
2017-06-28 02:47:00,46.6,46.3,30.07,West,270,0.0,-999.0,99,-99.99,,,0.00,,2017-06-28 06:47:00,
2017-06-28 02:52:00,46.6,46.3,30.07,West,270,0.0,-999.0,99,-99.99,,,0.00,,2017-06-28 06:52:00,
2017-06-28 02:57:00,46.6,46.3,30.07,West,270,0.0,-999.0,99,-99.99,,,0.00,,2017-06-28 06:57:00,
2017-06-28 03:02:00,46.6,46.3,30.07,WNW,292,0.0,-999.0,99,-99.99,,,0.00,,2017-06-28 07:02:00,
2017-06-28 03:07:00,46.4,46.1,30.07,West,270,0.0,-999.0,99,-99.99,,,0.00,,2017-06-28 07:07:00,
2017-06-28 03:12:00,46.2,45.9,30.07,West,270,0.0,-999.0,99,-99.99,,,0.00,,2017-06-28 07:12:00,
2017-06-28 03:18:00,46.2,45.9,30.07,West,270,0.0,-999.0,99,-99.99,,,0.00,,2017-06-28 07:18:00,
2017-06-28 03:23:00,46.2,45.9,30.07,West,270,0.0,-999.0,99,-99.99,,,0.00,,2017-06-28 07:23:00,
2017-06-28 03:28:00,46.0,45.7,30.06,West,270,0.0,-999.0,99,-99.99,,,0.00,,2017-06-28 07:28:00,
2017-06-28 03:33:00,46.0,45.7,30.06,West,270,0.0,-999.0,99,-99.99,,,0.00,,2017-06-28 07:33:00,
2017-06-28 03:38:00,45.9,45.6,30.06,West,270,0.0,-999.0,99,-99.99,,,0.00,,2017-06-28 07:38:00,
2017-06-28 03:43:00,45.9,45.6,30.06,West,270,0.0,-999.0,99,-99.99,,,0.00,,2017-06-28 07:43:00,
2017-06-28 03:49:00,45.7,45.4,30.06,West,270,0.0,-999.0,99,-99.99,,,0.00,,2017-06-28 07:49:00,
2017-06-28 03:54:00,45.7,45.4,30.06,West,270,0.0,-999.0,99,-99.99,,,0.00,,2017-06-28 07:54:00,
2017-06-28 04:00:00,45.5,45.2,30.06,WNW,292,0.0,-999.0,99,-99.99,,,0.00,,2017-06-28 08:00:00,
2017-06-28 04:05:00,45.5,45.2,30.06,WNW,292,0.0,-999.0,99,-99.99,,,0.00,,2017-06-28 08:05:00,
2017-06-28 04:10:00,45.3,45.0,30.06,West,270,0.0,-999.0,99,-99.99,,,0.00,,2017-06-28 08:10:00,
2017-06-28 04:15:00,45.3,45.0,30.07,West,270,0.0,-999.0,99,-99.99,,,0.00,,2017-06-28 08:15:00,
2017-06-28 04:21:00,45.1,44.8,30.07,West,270,0.0,-999.0,99,-99.99,,,0.00,,2017-06-28 08:21:00,
2017-06-28 04:27:00,45.0,44.7,30.07,West,270,0.0,-999.0,99,-99.99,,,0.00,,2017-06-28 08:27:00,
2017-06-28 04:32:00,45.0,44.7,30.07,West,270,0.0,-999.0,99,-99.99,,,0.00,,2017-06-28 08:32:00,
2017-06-28 04:37:00,44.8,44.5,30.07,West,270,0.0,-999.0,99,-99.99,,,0.00,,2017-06-28 08:37:00,
2017-06-28 04:43:00,44.8,44.5,30.08,West,270,0.0,-999.0,99,-99.99,,,0.00,,2017-06-28 08:43:00,
2017-06-28 04:48:00,44.8,44.5,30.08,West,270,0.0,-999.0,99,-99.99,,,0.00,,2017-06-28 08:48:00,
2017-06-28 04:53:00,44.8,44.5,30.07,West,270,0.0,-999.0,99,-99.99,,,0.00,,2017-06-28 08:53:00,
2017-06-28 04:58:00,44.8,44.5,30.07,WNW,292,0.0,-999.0,99,-99.99,,,0.00,,2017-06-28 08:58:00,
2017-06-28 05:04:00,44.6,44.3,30.07,West,270,0.0,-999.0,99,-99.99,,,0.00,,2017-06-28 09:04:00,
2017-06-28 05:09:00,44.6,44.3,30.07,WSW,247,0.0,-999.0,99,-99.99,,,0.00,,2017-06-28 09:09:00,
2017-06-28 05:14:00,44.4,44.1,30.07,West,270,0.0,-999.0,99,-99.99,,,0.00,,2017-06-28 09:14:00,
2017-06-28 05:20:00,44.4,44.1,30.07,West,270,0.0,-999.0,99,-99.99,,,0.00,,2017-06-28 09:20:00,
2017-06-28 05:25:00,44.2,43.9,30.06,WNW,292,0.0,-999.0,99,-99.99,,,0.00,,2017-06-28 09:25:00,
2017-06-28 05:31:00,44.2,43.9,30.06,WNW,292,0.0,-999.0,99,-99.99,,,0.00,,2017-06-28 09:31:00,
2017-06-28 05:37:00,44.2,43.9,30.06,WSW,247,0.0,-999.0,99,-99.99,,,0.00,,2017-06-28 09:37:00,
2017-06-28 05:42:00,44.1,43.8,30.06,West,270,0.0,-999.0,99,-99.99,,,0.00,,2017-06-28 09:42:00,
2017-06-28 05:47:00,43.9,43.6,30.06,West,270,0.0,-999.0,99,-99.99,,,0.00,,2017-06-28 09:47:00,
2017-06-28 05:53:00,43.9,43.6,30.06,WNW,292,0.0,-999.0,99,-99.99,,,0.00,,2017-06-28 09:53:00,
2017-06-28 05:58:00,43.9,43.6,30.06,West,270,0.0,-999.0,99,-99.99,,,0.00,,2017-06-28 09:58:00,
2017-06-28 06:03:00,43.9,43.6,30.06,West,270,0.0,-999.0,99,-99.99,,,0.00,,2017-06-28 10:03:00,
2017-06-28 06:08:00,43.9,43.6,30.06,West,270,0.0,-999.0,99,-99.99,,,0.00,,2017-06-28 10:08:00,
2017-06-28 06:12:00,43.9,43.6,30.06,West,270,0.0,-999.0,99,-99.99,,,0.00,,2017-06-28 10:12:00,
2017-06-28 06:17:00,43.9,43.6,30.06,West,270,0.0,-999.0,99,-99.99,,,0.00,,2017-06-28 10:17:00,
2017-06-28 06:22:00,43.9,43.6,30.06,West,270,0.0,-999.0,99,-99.99,,,0.00,,2017-06-28 10:22:00,
2017-06-28 06:28:00,44.1,43.8,30.07,West,270,0.0,-999.0,99,-99.99,,,0.00,,2017-06-28 10:28:00,
2017-06-28 06:33:00,44.2,43.9,30.07,West,270,0.0,-999.0,99,-99.99,,,0.00,,2017-06-28 10:33:00,
2017-06-28 06:38:00,44.2,43.9,30.07,West,270,0.0,-999.0,99,-99.99,,,0.00,,2017-06-28 10:38:00,
2017-06-28 06:43:00,44.4,44.1,30.07,West,270,0.0,-999.0,99,-99.99,,,0.00,,2017-06-28 10:43:00,
2017-06-28 06:48:00,44.8,44.5,30.07,West,270,0.0,-999.0,99,-99.99,,,0.00,,2017-06-28 10:48:00,
2017-06-28 06:54:00,45.0,44.7,30.09,West,270,0.0,-999.0,99,-99.99,,,0.00,,2017-06-28 10:54:00,
2017-06-28 06:59:00,45.5,45.2,30.09,WSW,247,0.0,-999.0,99,-99.99,,,0.00,,2017-06-28 10:59:00,
2017-06-28 07:04:00,46.0,45.7,30.08,WSW,247,0.0,-999.0,99,-99.99,,,0.00,,2017-06-28 11:04:00,
2017-06-28 07:10:00,47.1,46.8,30.08,West,270,0.0,-999.0,99,-99.99,,,0.00,,2017-06-28 11:10:00,
2017-06-28 07:15:00,48.0,47.7,30.09,West,270,0.0,-999.0,99,-99.99,,,0.00,,2017-06-28 11:15:00,
2017-06-28 07:20:00,49.3,49.0,30.09,West,270,0.0,-999.0,99,-99.99,,,0.00,,2017-06-28 11:20:00,
2017-06-28 07:25:00,50.7,50.4,30.09,WSW,247,0.0,-999.0,99,-99.99,,,0.00,,2017-06-28 11:25:00,
2017-06-28 07:30:00,52.7,52.2,30.09,West,270,0.0,-999.0,98,-99.99,,,0.00,,2017-06-28 11:30:00,
2017-06-28 07:36:00,55.0,53.9,30.09,WNW,292,0.0,-999.0,96,-99.99,,,0.00,,2017-06-28 11:36:00,
2017-06-28 07:42:00,57.6,55.6,30.09,East,90,0.0,-999.0,93,-99.99,,,0.00,,2017-06-28 11:42:00,
2017-06-28 07:47:00,59.5,56.9,30.09,NNE,22,0.0,-999.0,91,-99.99,,,0.00,,2017-06-28 11:47:00,
2017-06-28 07:52:00,61.7,59.4,30.10,ESE,112,0.0,-999.0,92,-99.99,,,0.00,,2017-06-28 11:52:00,
2017-06-28 07:57:00,63.5,59.9,30.10,NE,45,0.0,-999.0,88,-99.99,,,0.00,,2017-06-28 11:57:00,
2017-06-28 08:02:00,65.7,62.0,30.10,West,270,0.0,-999.0,88,-99.99,,,0.00,,2017-06-28 12:02:00,
2017-06-28 08:07:00,67.3,60.9,30.09,WSW,247,0.0,-999.0,80,-99.99,,,0.00,,2017-06-28 12:07:00,
2017-06-28 08:13:00,69.4,60.8,30.09,West,270,0.0,-999.0,74,-99.99,,,0.00,,2017-06-28 12:13:00,
2017-06-28 08:18:00,70.7,63.9,30.09,WSW,247,0.0,-999.0,79,-99.99,,,0.00,,2017-06-28 12:18:00,
2017-06-28 08:23:00,72.1,63.7,30.09,South,180,0.0,-999.0,75,-99.99,,,0.00,,2017-06-28 12:23:00,
2017-06-28 08:28:00,73.6,62.0,30.08,NNE,22,0.0,-999.0,67,-99.99,,,0.00,,2017-06-28 12:28:00,
2017-06-28 08:34:00,74.7,61.7,30.08,ENE,67,0.0,-999.0,64,-99.99,,,0.00,,2017-06-28 12:34:00,
2017-06-28 08:39:00,75.2,59.9,30.07,South,180,0.0,-999.0,59,-99.99,,,0.00,,2017-06-28 12:39:00,
2017-06-28 08:44:00,75.6,58.8,30.07,SW,225,0.0,-999.0,56,-99.99,,,0.00,,2017-06-28 12:44:00,
2017-06-28 08:50:00,76.3,60.0,30.07,ENE,67,0.0,-999.0,57,-99.99,,,0.00,,2017-06-28 12:50:00,
2017-06-28 08:55:00,77.4,60.0,30.07,West,270,0.0,-999.0,55,-99.99,,,0.00,,2017-06-28 12:55:00,
2017-06-28 09:00:00,78.1,59.6,30.07,WNW,292,0.0,-999.0,53,-99.99,,,0.00,,2017-06-28 13:00:00,
2017-06-28 09:05:00,78.4,59.3,30.08,West,270,0.0,-999.0,52,-99.99,,,0.00,,2017-06-28 13:05:00,
2017-06-28 09:10:00,79.0,58.8,30.08,WNW,292,0.0,-999.0,50,-99.99,,,0.00,,2017-06-28 13:10:00,
2017-06-28 09:15:00,79.2,58.4,30.08,NE,45,2.2,-999.0,49,-99.99,,,0.00,,2017-06-28 13:15:00,
2017-06-28 09:20:00,79.7,58.3,30.08,SW,225,0.0,-999.0,48,-99.99,,,0.00,,2017-06-28 13:20:00,
2017-06-28 09:26:00,80.4,58.9,30.08,West,270,2.2,-999.0,48,-99.99,,,0.00,,2017-06-28 13:26:00,
2017-06-28 09:31:00,80.8,59.9,30.08,West,270,1.7,-999.0,49,-99.99,,,0.00,,2017-06-28 13:31:00,
2017-06-28 09:36:00,82.0,60.4,30.08,WSW,247,0.0,-999.0,48,-99.99,,,0.00,,2017-06-28 13:36:00,
2017-06-28 09:41:00,82.2,60.0,30.08,NE,45,2.2,-999.0,47,-99.99,,,0.00,,2017-06-28 13:41:00,
2017-06-28 09:47:00,82.0,57.3,30.08,ENE,67,3.7,-999.0,43,-99.99,,,0.00,,2017-06-28 13:47:00,
2017-06-28 09:52:00,82.8,59.3,30.08,South,180,2.2,-999.0,45,-99.99,,,0.00,,2017-06-28 13:52:00,
2017-06-28 09:57:00,83.7,60.1,30.08,ESE,112,2.2,-999.0,45,-99.99,,,0.00,,2017-06-28 13:57:00,
2017-06-28 10:03:00,82.9,58.1,30.09,NE,45,3.2,-999.0,43,-99.99,,,0.00,,2017-06-28 14:03:00,
2017-06-28 10:09:00,82.0,59.2,30.09,ESE,112,2.2,-999.0,46,-99.99,,,0.00,,2017-06-28 14:09:00,
2017-06-28 10:15:00,83.1,58.3,30.09,North,360,3.2,-999.0,43,-99.99,,,0.00,,2017-06-28 14:15:00,
2017-06-28 10:21:00,83.1,57.6,30.09,ESE,112,1.7,-999.0,42,-99.99,,,0.00,,2017-06-28 14:21:00,
2017-06-28 10:26:00,82.9,57.5,30.08,SSE,157,5.3,-999.0,42,-99.99,,,0.00,,2017-06-28 14:26:00,
2017-06-28 10:31:00,81.9,57.9,30.08,WSW,247,3.7,-999.0,44,-99.99,,,0.00,,2017-06-28 14:31:00,
2017-06-28 10:37:00,82.0,57.3,30.08,South,180,3.2,-999.0,43,-99.99,,,0.00,,2017-06-28 14:37:00,
2017-06-28 10:42:00,83.1,58.3,30.07,East,90,2.7,-999.0,43,-99.99,,,0.00,,2017-06-28 14:42:00,
2017-06-28 10:47:00,82.8,57.4,30.07,ESE,112,5.8,-999.0,42,-99.99,,,0.00,,2017-06-28 14:47:00,
2017-06-28 10:52:00,83.7,58.8,30.07,SSE,157,2.2,-999.0,43,-99.99,,,0.00,,2017-06-28 14:52:00,
2017-06-28 10:57:00,84.4,58.1,30.07,SE,135,4.2,-999.0,41,-99.99,,,0.00,,2017-06-28 14:57:00,
2017-06-28 11:02:00,84.6,58.3,30.07,ESE,112,2.7,-999.0,41,-99.99,,,0.00,,2017-06-28 15:02:00,
2017-06-28 11:07:00,84.7,57.7,30.07,South,180,2.2,-999.0,40,-99.99,,,0.00,,2017-06-28 15:07:00,
2017-06-28 11:13:00,85.5,57.0,30.07,South,180,4.7,-999.0,38,-99.99,,,0.00,,2017-06-28 15:13:00,
2017-06-28 11:19:00,84.9,59.3,30.07,SSE,157,2.7,-999.0,42,-99.99,,,0.00,,2017-06-28 15:19:00,
2017-06-28 11:25:00,85.3,58.9,30.07,SW,225,3.2,-999.0,41,-99.99,,,0.00,,2017-06-28 15:25:00,
2017-06-28 11:30:00,85.1,57.4,30.07,SSW,202,3.7,-999.0,39,-99.99,,,0.00,,2017-06-28 15:30:00,
2017-06-28 11:36:00,85.3,57.5,30.07,South,180,3.2,-999.0,39,-99.99,,,0.00,,2017-06-28 15:36:00,
2017-06-28 11:41:00,85.3,57.5,30.08,SW,225,2.7,-999.0,39,-99.99,,,0.00,,2017-06-28 15:41:00,
2017-06-28 11:46:00,85.5,59.1,30.08,South,180,2.7,-999.0,41,-99.99,,,0.00,,2017-06-28 15:46:00,
2017-06-28 11:51:00,85.1,58.1,30.08,SSE,157,3.2,-999.0,40,-99.99,,,0.00,,2017-06-28 15:51:00,
2017-06-28 11:57:00,84.7,58.4,30.08,SE,135,2.7,-999.0,41,-99.99,,,0.00,,2017-06-28 15:57:00,
2017-06-28 12:02:00,84.4,56.7,30.08,SSW,202,4.2,-999.0,39,-99.99,,,0.00,,2017-06-28 16:02:00,
2017-06-28 12:07:00,85.1,58.1,30.08,South,180,1.1,-999.0,40,-99.99,,,0.00,,2017-06-28 16:07:00,
2017-06-28 12:12:00,84.7,58.4,30.08,South,180,3.2,-999.0,41,-99.99,,,0.00,,2017-06-28 16:12:00,
2017-06-28 12:18:00,84.6,56.9,30.07,West,270,3.7,-999.0,39,-99.99,,,0.00,,2017-06-28 16:18:00,
2017-06-28 12:23:00,84.4,59.5,30.07,East,90,5.8,-999.0,43,-99.99,,,0.00,,2017-06-28 16:23:00,
2017-06-28 12:29:00,84.0,58.5,30.07,SW,225,1.7,-999.0,42,-99.99,,,0.00,,2017-06-28 16:29:00,
2017-06-28 12:34:00,83.7,60.1,30.07,West,270,6.8,-999.0,45,-99.99,,,0.00,,2017-06-28 16:34:00,
2017-06-28 12:39:00,83.3,57.8,30.07,South,180,3.2,-999.0,42,-99.99,,,0.00,,2017-06-28 16:39:00,
2017-06-28 12:45:00,83.5,58.7,30.07,WNW,292,3.2,-999.0,43,-99.99,,,0.00,,2017-06-28 16:45:00,
2017-06-28 12:50:00,83.7,57.5,30.07,WNW,292,4.2,-999.0,41,-99.99,,,0.00,,2017-06-28 16:50:00,
2017-06-28 12:56:00,84.2,57.3,30.07,NNE,22,6.3,-999.0,40,-99.99,,,0.00,,2017-06-28 16:56:00,
2017-06-28 13:01:00,84.7,58.4,30.07,NNE,22,3.2,-999.0,41,-99.99,,,0.00,,2017-06-28 17:01:00,
2017-06-28 13:06:00,85.5,58.4,30.06,SSE,157,3.2,-999.0,40,-99.99,,,0.00,,2017-06-28 17:06:00,
2017-06-28 13:12:00,84.7,58.4,30.06,West,270,2.2,-999.0,41,-99.99,,,0.00,,2017-06-28 17:12:00,
2017-06-28 13:17:00,86.0,58.2,30.06,SSW,202,2.7,-999.0,39,-99.99,,,0.00,,2017-06-28 17:17:00,
2017-06-28 13:22:00,84.7,57.7,30.06,South,180,2.7,-999.0,40,-99.99,,,0.00,,2017-06-28 17:22:00,
2017-06-28 13:27:00,85.3,58.3,30.05,NNW,337,2.2,-999.0,40,-99.99,,,0.00,,2017-06-28 17:27:00,
2017-06-28 13:33:00,84.6,59.0,30.05,East,90,4.2,-999.0,42,-99.99,,,0.00,,2017-06-28 17:33:00,
2017-06-28 13:39:00,85.3,59.6,30.04,SE,135,5.8,-999.0,42,-99.99,,,0.00,,2017-06-28 17:39:00,
2017-06-28 13:44:00,85.3,58.3,30.04,SSE,157,2.7,-999.0,40,-99.99,,,0.00,,2017-06-28 17:44:00,
2017-06-28 13:49:00,85.8,59.4,30.04,SSW,202,1.7,-999.0,41,-99.99,,,0.00,,2017-06-28 17:49:00,
2017-06-28 13:54:00,84.4,59.5,30.05,NNE,22,3.2,-999.0,43,-99.99,,,0.00,,2017-06-28 17:54:00,
2017-06-28 13:55:00,84.4,59.5,30.05,South,180,3.2,-999.0,43,-99.99,,,0.00,,2017-06-28 17:55:00,
2017-06-28 14:00:00,83.1,58.9,30.05,South,180,3.2,-999.0,44,-99.99,,,0.00,,2017-06-28 18:00:00,
2017-06-28 14:05:00,84.0,59.1,30.05,East,90,2.2,-999.0,43,-99.99,,,0.00,,2017-06-28 18:05:00,
2017-06-28 14:11:00,85.1,58.8,30.05,South,180,1.7,-999.0,41,-99.99,,,0.00,,2017-06-28 18:11:00,
2017-06-28 14:16:00,85.3,58.9,30.05,SSW,202,2.7,-999.0,41,-99.99,,,0.00,,2017-06-28 18:16:00,
2017-06-28 14:22:00,83.8,57.6,30.05,SSE,157,2.2,-999.0,41,-99.99,,,0.00,,2017-06-28 18:22:00,
2017-06-28 14:27:00,83.5,58.0,30.04,SE,135,7.8,-999.0,42,-99.99,,,0.00,,2017-06-28 18:27:00,
2017-06-28 14:33:00,84.0,59.1,30.04,SE,135,2.7,-999.0,43,-99.99,,,0.00,,2017-06-28 18:33:00,
2017-06-28 14:38:00,84.6,60.3,30.03,NE,45,2.7,-999.0,44,-99.99,,,0.00,,2017-06-28 18:38:00,
2017-06-28 14:43:00,83.8,59.6,30.03,SE,135,4.2,-999.0,44,-99.99,,,0.00,,2017-06-28 18:43:00,
2017-06-28 14:48:00,84.0,58.5,30.03,SE,135,3.7,-999.0,42,-99.99,,,0.00,,2017-06-28 18:48:00,
2017-06-28 14:53:00,83.7,58.2,30.03,ESE,112,6.3,-999.0,42,-99.99,,,0.00,,2017-06-28 18:53:00,
2017-06-28 14:58:00,84.0,58.5,30.03,ESE,112,6.3,-999.0,42,-99.99,,,0.00,,2017-06-28 18:58:00,
2017-06-28 15:03:00,84.2,58.0,30.03,SE,135,3.2,-999.0,41,-99.99,,,0.00,,2017-06-28 19:03:00,
2017-06-28 15:09:00,84.7,57.7,30.03,West,270,3.2,-999.0,40,-99.99,,,0.00,,2017-06-28 19:09:00,
2017-06-28 15:14:00,85.1,59.4,30.02,NNW,337,3.7,-999.0,42,-99.99,,,0.00,,2017-06-28 19:14:00,
2017-06-28 15:19:00,86.0,60.2,30.02,East,90,2.2,-999.0,42,-99.99,,,0.00,,2017-06-28 19:19:00,
2017-06-28 15:25:00,86.5,58.6,30.02,SSW,202,6.3,-999.0,39,-99.99,,,0.00,,2017-06-28 19:25:00,
2017-06-28 15:31:00,86.9,59.0,30.01,South,180,2.7,-999.0,39,-99.99,,,0.00,,2017-06-28 19:31:00,
2017-06-28 15:36:00,87.4,60.1,30.01,SE,135,3.7,-999.0,40,-99.99,,,0.00,,2017-06-28 19:36:00,
2017-06-28 15:41:00,86.2,59.1,30.01,SSE,157,2.7,-999.0,40,-99.99,,,0.00,,2017-06-28 19:41:00,
2017-06-28 15:46:00,85.8,60.1,30.01,ESE,112,4.7,-999.0,42,-99.99,,,0.00,,2017-06-28 19:46:00,
2017-06-28 15:51:00,84.6,59.6,30.01,NW,315,2.2,-999.0,43,-99.99,,,0.00,,2017-06-28 19:51:00,